sensor_id;sensor_type;location;lat;lon;timestamp;P1;durP1;ratioP1;P2;durP2;ratioP2
20423;SDS011;10371;49.042;8.002;2023-04-23T00:00:12;4.70;;;4.30;;
20423;SDS011;10371;49.042;8.002;2023-04-23T00:01:13;5.15;;;4.68;;
20423;SDS011;10371;49.042;8.002;2023-04-23T00:02:16;5.10;;;4.65;;
20423;SDS011;10371;49.042;8.002;2023-04-23T00:03:18;5.28;;;4.78;;
20423;SDS011;10371;49.042;8.002;2023-04-23T00:04:20;5.32;;;4.82;;
20423;SDS011;10371;49.042;8.002;2023-04-23T00:05:21;5.25;;;4.72;;
20423;SDS011;10371;49.042;8.002;2023-04-23T00:06:27;5.20;;;4.47;;
20423;SDS011;10371;49.042;8.002;2023-04-23T00:07:27;4.95;;;4.55;;
20423;SDS011;10371;49.042;8.002;2023-04-23T00:08:28;4.60;;;4.20;;
20423;SDS011;10371;49.042;8.002;2023-04-23T00:09:29;4.85;;;4.45;;
20423;SDS011;10371;49.042;8.002;2023-04-23T00:10:31;4.60;;;4.20;;
20423;SDS011;10371;49.042;8.002;2023-04-23T00:11:32;4.63;;;4.22;;
20423;SDS011;10371;49.042;8.002;2023-04-23T00:12:32;4.75;;;4.35;;
20423;SDS011;10371;49.042;8.002;2023-04-23T00:13:33;4.60;;;4.20;;
20423;SDS011;10371;49.042;8.002;2023-04-23T00:14:34;4.25;;;3.95;;
20423;SDS011;10371;49.042;8.002;2023-04-23T00:15:35;4.93;;;4.28;;
20423;SDS011;10371;49.042;8.002;2023-04-23T00:16:35;4.65;;;4.25;;
20423;SDS011;10371;49.042;8.002;2023-04-23T00:17:36;4.15;;;3.78;;
20423;SDS011;10371;49.042;8.002;2023-04-23T00:18:37;5.72;;;4.13;;
20423;SDS011;10371;49.042;8.002;2023-04-23T00:19:37;4.07;;;3.78;;
20423;SDS011;10371;49.042;8.002;2023-04-23T00:20:37;4.25;;;3.58;;
20423;SDS011;10371;49.042;8.002;2023-04-23T00:21:38;3.95;;;3.65;;
20423;SDS011;10371;49.042;8.002;2023-04-23T00:22:38;4.75;;;4.30;;
20423;SDS011;10371;49.042;8.002;2023-04-23T00:23:38;4.68;;;4.28;;
20423;SDS011;10371;49.042;8.002;2023-04-23T00:24:39;4.40;;;3.85;;
20423;SDS011;10371;49.042;8.002;2023-04-23T00:25:39;4.60;;;3.90;;
20423;SDS011;10371;49.042;8.002;2023-04-23T00:26:39;4.60;;;4.20;;
20423;SDS011;10371;49.042;8.002;2023-04-23T00:27:40;4.38;;;3.97;;
20423;SDS011;10371;49.042;8.002;2023-04-23T00:28:40;4.13;;;3.83;;
20423;SDS011;10371;49.042;8.002;2023-04-23T00:29:40;4.38;;;4.07;;
20423;SDS011;10371;49.042;8.002;2023-04-23T00:30:42;4.68;;;3.83;;
20423;SDS011;10371;49.042;8.002;2023-04-23T00:31:42;5.30;;;4.80;;
20423;SDS011;10371;49.042;8.002;2023-04-23T00:32:42;4.75;;;4.00;;
20423;SDS011;10371;49.042;8.002;2023-04-23T00:33:43;4.47;;;4.03;;
20423;SDS011;10371;49.042;8.002;2023-04-23T00:34:43;4.57;;;4.20;;
20423;SDS011;10371;49.042;8.002;2023-04-23T00:35:47;4.30;;;4.00;;
20423;SDS011;10371;49.042;8.002;2023-04-23T00:36:47;4.03;;;3.63;;
20423;SDS011;10371;49.042;8.002;2023-04-23T00:37:48;4.68;;;4.25;;
20423;SDS011;10371;49.042;8.002;2023-04-23T00:38:48;4.57;;;4.18;;
20423;SDS011;10371;49.042;8.002;2023-04-23T00:39:48;4.88;;;4.15;;
20423;SDS011;10371;49.042;8.002;2023-04-23T00:40:49;5.00;;;4.47;;
20423;SDS011;10371;49.042;8.002;2023-04-23T00:41:49;4.63;;;4.30;;
20423;SDS011;10371;49.042;8.002;2023-04-23T00:42:49;4.70;;;4.30;;
20423;SDS011;10371;49.042;8.002;2023-04-23T00:43:52;4.70;;;4.30;;
20423;SDS011;10371;49.042;8.002;2023-04-23T00:44:53;4.72;;;4.40;;
20423;SDS011;10371;49.042;8.002;2023-04-23T00:45:54;4.35;;;4.00;;
20423;SDS011;10371;49.042;8.002;2023-04-23T00:46:54;5.18;;;4.35;;
20423;SDS011;10371;49.042;8.002;2023-04-23T00:47:55;4.38;;;4.05;;
20423;SDS011;10371;49.042;8.002;2023-04-23T00:48:55;4.63;;;4.22;;
20423;SDS011;10371;49.042;8.002;2023-04-23T00:49:56;4.28;;;3.88;;
20423;SDS011;10371;49.042;8.002;2023-04-23T00:50:58;4.45;;;4.05;;
20423;SDS011;10371;49.042;8.002;2023-04-23T00:51:59;4.28;;;3.97;;
20423;SDS011;10371;49.042;8.002;2023-04-23T00:53:00;4.45;;;4.03;;
20423;SDS011;10371;49.042;8.002;2023-04-23T00:54:00;4.30;;;3.90;;
20423;SDS011;10371;49.042;8.002;2023-04-23T00:55:01;4.57;;;4.28;;
20423;SDS011;10371;49.042;8.002;2023-04-23T00:56:01;4.32;;;4.03;;
20423;SDS011;10371;49.042;8.002;2023-04-23T00:57:04;4.60;;;4.20;;
20423;SDS011;10371;49.042;8.002;2023-04-23T00:58:06;4.10;;;3.80;;
20423;SDS011;10371;49.042;8.002;2023-04-23T00:59:07;4.53;;;4.03;;
20423;SDS011;10371;49.042;8.002;2023-04-23T01:00:08;4.53;;;4.13;;
20423;SDS011;10371;49.042;8.002;2023-04-23T01:01:08;4.80;;;4.40;;
20423;SDS011;10371;49.042;8.002;2023-04-23T01:02:09;5.80;;;4.32;;
20423;SDS011;10371;49.042;8.002;2023-04-23T01:03:09;4.90;;;4.40;;
20423;SDS011;10371;49.042;8.002;2023-04-23T01:04:12;5.15;;;4.20;;
20423;SDS011;10371;49.042;8.002;2023-04-23T01:05:15;4.72;;;4.25;;
20423;SDS011;10371;49.042;8.002;2023-04-23T01:06:17;4.47;;;4.15;;
20423;SDS011;10371;49.042;8.002;2023-04-23T01:07:18;4.43;;;4.00;;
20423;SDS011;10371;49.042;8.002;2023-04-23T01:08:18;4.53;;;4.15;;
20423;SDS011;10371;49.042;8.002;2023-04-23T01:09:22;5.10;;;4.60;;
20423;SDS011;10371;49.042;8.002;2023-04-23T01:10:23;5.10;;;4.60;;
20423;SDS011;10371;49.042;8.002;2023-04-23T01:11:23;4.35;;;4.05;;
20423;SDS011;10371;49.042;8.002;2023-04-23T01:12:24;5.07;;;4.65;;
20423;SDS011;10371;49.042;8.002;2023-04-23T01:13:25;4.90;;;4.25;;
20423;SDS011;10371;49.042;8.002;2023-04-23T01:14:28;4.85;;;4.38;;
20423;SDS011;10371;49.042;8.002;2023-04-23T01:15:28;4.32;;;3.90;;
20423;SDS011;10371;49.042;8.002;2023-04-23T01:16:29;4.10;;;3.78;;
20423;SDS011;10371;49.042;8.002;2023-04-23T01:17:29;4.75;;;4.43;;
20423;SDS011;10371;49.042;8.002;2023-04-23T01:18:31;4.47;;;4.07;;
20423;SDS011;10371;49.042;8.002;2023-04-23T01:19:31;4.75;;;4.38;;
20423;SDS011;10371;49.042;8.002;2023-04-23T01:20:31;4.80;;;4.30;;
20423;SDS011;10371;49.042;8.002;2023-04-23T01:21:36;5.70;;;3.97;;
20423;SDS011;10371;49.042;8.002;2023-04-23T01:22:37;4.47;;;4.18;;
20423;SDS011;10371;49.042;8.002;2023-04-23T01:23:37;5.28;;;4.80;;
20423;SDS011;10371;49.042;8.002;2023-04-23T01:24:38;4.53;;;4.20;;
20423;SDS011;10371;49.042;8.002;2023-04-23T01:25:40;4.93;;;4.30;;
20423;SDS011;10371;49.042;8.002;2023-04-23T01:26:40;4.75;;;4.20;;
20423;SDS011;10371;49.042;8.002;2023-04-23T01:27:40;5.05;;;4.65;;
20423;SDS011;10371;49.042;8.002;2023-04-23T01:28:41;4.95;;;4.32;;
20423;SDS011;10371;49.042;8.002;2023-04-23T01:29:42;4.93;;;4.43;;
20423;SDS011;10371;49.042;8.002;2023-04-23T01:30:43;4.75;;;4.35;;
20423;SDS011;10371;49.042;8.002;2023-04-23T01:31:44;4.90;;;4.45;;
20423;SDS011;10371;49.042;8.002;2023-04-23T01:32:45;4.53;;;4.20;;
20423;SDS011;10371;49.042;8.002;2023-04-23T01:33:47;5.03;;;4.20;;
20423;SDS011;10371;49.042;8.002;2023-04-23T01:34:50;4.47;;;4.03;;
20423;SDS011;10371;49.042;8.002;2023-04-23T01:35:53;4.45;;;4.05;;
20423;SDS011;10371;49.042;8.002;2023-04-23T01:36:54;4.30;;;4.00;;
20423;SDS011;10371;49.042;8.002;2023-04-23T01:37:55;4.88;;;4.47;;
20423;SDS011;10371;49.042;8.002;2023-04-23T01:38:57;4.43;;;4.03;;
20423;SDS011;10371;49.042;8.002;2023-04-23T01:39:58;4.13;;;3.80;;
20423;SDS011;10371;49.042;8.002;2023-04-23T01:40:58;3.85;;;3.55;;
20423;SDS011;10371;49.042;8.002;2023-04-23T01:41:58;5.60;;;3.78;;
20423;SDS011;10371;49.042;8.002;2023-04-23T01:43:00;4.07;;;3.78;;
20423;SDS011;10371;49.042;8.002;2023-04-23T01:44:00;4.07;;;3.72;;
20423;SDS011;10371;49.042;8.002;2023-04-23T01:45:01;4.18;;;3.88;;
20423;SDS011;10371;49.042;8.002;2023-04-23T01:46:02;4.20;;;3.85;;
20423;SDS011;10371;49.042;8.002;2023-04-23T01:47:03;4.57;;;3.85;;
20423;SDS011;10371;49.042;8.002;2023-04-23T01:48:03;4.25;;;3.53;;
20423;SDS011;10371;49.042;8.002;2023-04-23T01:49:04;4.38;;;3.95;;
20423;SDS011;10371;49.042;8.002;2023-04-23T01:50:04;4.03;;;3.70;;
20423;SDS011;10371;49.042;8.002;2023-04-23T01:51:05;4.90;;;3.90;;
20423;SDS011;10371;49.042;8.002;2023-04-23T01:52:05;3.72;;;3.42;;
20423;SDS011;10371;49.042;8.002;2023-04-23T01:53:05;3.80;;;3.50;;
20423;SDS011;10371;49.042;8.002;2023-04-23T01:54:06;4.90;;;3.72;;
20423;SDS011;10371;49.042;8.002;2023-04-23T01:55:06;3.65;;;3.35;;
20423;SDS011;10371;49.042;8.002;2023-04-23T01:56:08;4.15;;;3.75;;
20423;SDS011;10371;49.042;8.002;2023-04-23T01:57:09;3.90;;;3.60;;
20423;SDS011;10371;49.042;8.002;2023-04-23T01:58:09;4.40;;;4.00;;
20423;SDS011;10371;49.042;8.002;2023-04-23T01:59:10;4.22;;;3.83;;
20423;SDS011;10371;49.042;8.002;2023-04-23T02:00:10;4.35;;;3.95;;
20423;SDS011;10371;49.042;8.002;2023-04-23T02:01:11;5.03;;;4.55;;
20423;SDS011;10371;49.042;8.002;2023-04-23T02:02:12;5.32;;;4.85;;
20423;SDS011;10371;49.042;8.002;2023-04-23T02:03:12;4.80;;;4.40;;
20423;SDS011;10371;49.042;8.002;2023-04-23T02:04:13;4.78;;;4.38;;
20423;SDS011;10371;49.042;8.002;2023-04-23T02:05:15;5.68;;;5.03;;
20423;SDS011;10371;49.042;8.002;2023-04-23T02:06:17;5.43;;;5.03;;
20423;SDS011;10371;49.042;8.002;2023-04-23T02:07:17;6.40;;;5.60;;
20423;SDS011;10371;49.042;8.002;2023-04-23T02:08:18;6.10;;;5.50;;
20423;SDS011;10371;49.042;8.002;2023-04-23T02:09:18;5.72;;;5.03;;
20423;SDS011;10371;49.042;8.002;2023-04-23T02:10:18;5.40;;;5.00;;
20423;SDS011;10371;49.042;8.002;2023-04-23T02:11:19;5.80;;;5.28;;
20423;SDS011;10371;49.042;8.002;2023-04-23T02:12:19;6.28;;;5.68;;
20423;SDS011;10371;49.042;8.002;2023-04-23T02:13:20;5.45;;;4.97;;
20423;SDS011;10371;49.042;8.002;2023-04-23T02:14:20;5.75;;;5.15;;
20423;SDS011;10371;49.042;8.002;2023-04-23T02:15:20;4.80;;;4.40;;
20423;SDS011;10371;49.042;8.002;2023-04-23T02:16:21;5.00;;;4.60;;
20423;SDS011;10371;49.042;8.002;2023-04-23T02:17:23;5.47;;;4.97;;
20423;SDS011;10371;49.042;8.002;2023-04-23T02:18:23;5.45;;;4.95;;
20423;SDS011;10371;49.042;8.002;2023-04-23T02:19:24;5.53;;;5.03;;
20423;SDS011;10371;49.042;8.002;2023-04-23T02:20:25;6.05;;;5.45;;
20423;SDS011;10371;49.042;8.002;2023-04-23T02:21:25;5.18;;;4.70;;
20423;SDS011;10371;49.042;8.002;2023-04-23T02:22:26;5.72;;;5.32;;
20423;SDS011;10371;49.042;8.002;2023-04-23T02:23:27;5.22;;;4.82;;
20423;SDS011;10371;49.042;8.002;2023-04-23T02:24:27;5.57;;;5.05;;
20423;SDS011;10371;49.042;8.002;2023-04-23T02:25:27;5.32;;;4.93;;
20423;SDS011;10371;49.042;8.002;2023-04-23T02:26:28;5.88;;;5.38;;
20423;SDS011;10371;49.042;8.002;2023-04-23T02:27:28;5.20;;;4.80;;
20423;SDS011;10371;49.042;8.002;2023-04-23T02:28:28;5.25;;;4.78;;
20423;SDS011;10371;49.042;8.002;2023-04-23T02:29:30;4.88;;;4.47;;
20423;SDS011;10371;49.042;8.002;2023-04-23T02:30:30;5.00;;;4.60;;
20423;SDS011;10371;49.042;8.002;2023-04-23T02:31:31;5.25;;;4.85;;
20423;SDS011;10371;49.042;8.002;2023-04-23T02:32:31;4.93;;;4.53;;
20423;SDS011;10371;49.042;8.002;2023-04-23T02:33:31;4.70;;;4.25;;
20423;SDS011;10371;49.042;8.002;2023-04-23T02:34:32;4.70;;;4.30;;
20423;SDS011;10371;49.042;8.002;2023-04-23T02:35:32;4.70;;;4.32;;
20423;SDS011;10371;49.042;8.002;2023-04-23T02:36:32;4.93;;;4.53;;
20423;SDS011;10371;49.042;8.002;2023-04-23T02:37:33;5.05;;;4.40;;
20423;SDS011;10371;49.042;8.002;2023-04-23T02:38:34;4.40;;;4.00;;
20423;SDS011;10371;49.042;8.002;2023-04-23T02:39:34;5.35;;;4.68;;
20423;SDS011;10371;49.042;8.002;2023-04-23T02:40:34;5.55;;;4.38;;
20423;SDS011;10371;49.042;8.002;2023-04-23T02:41:35;4.97;;;4.07;;
20423;SDS011;10371;49.042;8.002;2023-04-23T02:42:35;4.30;;;3.95;;
20423;SDS011;10371;49.042;8.002;2023-04-23T02:43:36;4.13;;;3.83;;
20423;SDS011;10371;49.042;8.002;2023-04-23T02:44:36;5.93;;;4.40;;
20423;SDS011;10371;49.042;8.002;2023-04-23T02:45:36;4.00;;;3.70;;
20423;SDS011;10371;49.042;8.002;2023-04-23T02:46:37;4.80;;;4.25;;
20423;SDS011;10371;49.042;8.002;2023-04-23T02:47:37;4.72;;;4.30;;
20423;SDS011;10371;49.042;8.002;2023-04-23T02:48:38;4.20;;;3.80;;
20423;SDS011;10371;49.042;8.002;2023-04-23T02:49:40;4.00;;;3.70;;
20423;SDS011;10371;49.042;8.002;2023-04-23T02:50:40;4.20;;;3.88;;
20423;SDS011;10371;49.042;8.002;2023-04-23T02:51:40;4.10;;;3.70;;
20423;SDS011;10371;49.042;8.002;2023-04-23T02:52:40;4.60;;;4.20;;
20423;SDS011;10371;49.042;8.002;2023-04-23T02:53:41;4.22;;;3.92;;
20423;SDS011;10371;49.042;8.002;2023-04-23T02:54:41;4.25;;;3.95;;
20423;SDS011;10371;49.042;8.002;2023-04-23T02:55:42;4.18;;;3.88;;
20423;SDS011;10371;49.042;8.002;2023-04-23T02:56:42;3.83;;;3.53;;
20423;SDS011;10371;49.042;8.002;2023-04-23T02:57:42;4.15;;;3.85;;
20423;SDS011;10371;49.042;8.002;2023-04-23T02:58:44;4.13;;;3.83;;
20423;SDS011;10371;49.042;8.002;2023-04-23T02:59:44;4.47;;;4.10;;
20423;SDS011;10371;49.042;8.002;2023-04-23T03:00:45;4.07;;;3.78;;
20423;SDS011;10371;49.042;8.002;2023-04-23T03:01:45;3.97;;;3.67;;
20423;SDS011;10371;49.042;8.002;2023-04-23T03:02:45;3.95;;;3.65;;
20423;SDS011;10371;49.042;8.002;2023-04-23T03:03:46;3.90;;;3.63;;
20423;SDS011;10371;49.042;8.002;2023-04-23T03:04:47;4.07;;;3.70;;
20423;SDS011;10371;49.042;8.002;2023-04-23T03:05:47;4.32;;;3.92;;
20423;SDS011;10371;49.042;8.002;2023-04-23T03:06:47;4.35;;;3.95;;
20423;SDS011;10371;49.042;8.002;2023-04-23T03:07:48;4.10;;;3.80;;
20423;SDS011;10371;49.042;8.002;2023-04-23T03:08:48;3.97;;;3.65;;
20423;SDS011;10371;49.042;8.002;2023-04-23T03:09:48;3.75;;;3.45;;
20423;SDS011;10371;49.042;8.002;2023-04-23T03:10:48;4.00;;;3.70;;
20423;SDS011;10371;49.042;8.002;2023-04-23T03:11:49;4.20;;;3.80;;
20423;SDS011;10371;49.042;8.002;2023-04-23T03:12:50;4.20;;;3.90;;
20423;SDS011;10371;49.042;8.002;2023-04-23T03:13:50;4.18;;;3.88;;
20423;SDS011;10371;49.042;8.002;2023-04-23T03:14:50;3.80;;;3.50;;
20423;SDS011;10371;49.042;8.002;2023-04-23T03:15:50;3.97;;;3.67;;
20423;SDS011;10371;49.042;8.002;2023-04-23T03:16:53;4.22;;;3.92;;
20423;SDS011;10371;49.042;8.002;2023-04-23T03:17:53;4.38;;;3.97;;
20423;SDS011;10371;49.042;8.002;2023-04-23T03:18:54;3.00;;;2.78;;
20423;SDS011;10371;49.042;8.002;2023-04-23T03:19:54;3.75;;;3.45;;
20423;SDS011;10371;49.042;8.002;2023-04-23T03:20:55;4.18;;;3.78;;
20423;SDS011;10371;49.042;8.002;2023-04-23T03:21:55;3.70;;;3.40;;
20423;SDS011;10371;49.042;8.002;2023-04-23T03:22:56;4.20;;;3.90;;
20423;SDS011;10371;49.042;8.002;2023-04-23T03:23:56;4.22;;;3.92;;
20423;SDS011;10371;49.042;8.002;2023-04-23T03:24:57;3.47;;;3.28;;
20423;SDS011;10371;49.042;8.002;2023-04-23T03:25:57;4.05;;;3.67;;
20423;SDS011;10371;49.042;8.002;2023-04-23T03:26:57;4.20;;;3.83;;
20423;SDS011;10371;49.042;8.002;2023-04-23T03:27:58;3.95;;;3.55;;
20423;SDS011;10371;49.042;8.002;2023-04-23T03:28:58;4.18;;;3.88;;
20423;SDS011;10371;49.042;8.002;2023-04-23T03:29:58;3.90;;;3.60;;
20423;SDS011;10371;49.042;8.002;2023-04-23T03:30:58;3.88;;;3.58;;
20423;SDS011;10371;49.042;8.002;2023-04-23T03:31:59;4.20;;;3.80;;
20423;SDS011;10371;49.042;8.002;2023-04-23T03:33:00;4.28;;;3.97;;
20423;SDS011;10371;49.042;8.002;2023-04-23T03:34:03;4.90;;;4.50;;
20423;SDS011;10371;49.042;8.002;2023-04-23T03:35:03;4.18;;;3.88;;
20423;SDS011;10371;49.042;8.002;2023-04-23T03:36:04;4.05;;;3.75;;
20423;SDS011;10371;49.042;8.002;2023-04-23T03:37:04;4.15;;;3.80;;
20423;SDS011;10371;49.042;8.002;2023-04-23T03:38:05;4.18;;;3.88;;
20423;SDS011;10371;49.042;8.002;2023-04-23T03:39:05;4.00;;;3.70;;
20423;SDS011;10371;49.042;8.002;2023-04-23T03:40:07;3.97;;;3.67;;
20423;SDS011;10371;49.042;8.002;2023-04-23T03:41:08;3.92;;;3.63;;
20423;SDS011;10371;49.042;8.002;2023-04-23T03:42:08;3.75;;;3.53;;
20423;SDS011;10371;49.042;8.002;2023-04-23T03:43:08;4.25;;;3.80;;
20423;SDS011;10371;49.042;8.002;2023-04-23T03:44:09;4.40;;;4.00;;
20423;SDS011;10371;49.042;8.002;2023-04-23T03:45:09;3.72;;;3.33;;
20423;SDS011;10371;49.042;8.002;2023-04-23T03:46:10;4.05;;;3.65;;
20423;SDS011;10371;49.042;8.002;2023-04-23T03:47:10;4.35;;;3.95;;
20423;SDS011;10371;49.042;8.002;2023-04-23T03:48:10;4.20;;;3.80;;
20423;SDS011;10371;49.042;8.002;2023-04-23T03:49:11;4.13;;;3.80;;
20423;SDS011;10371;49.042;8.002;2023-04-23T03:50:11;3.92;;;3.60;;
20423;SDS011;10371;49.042;8.002;2023-04-23T03:51:12;3.92;;;3.63;;
20423;SDS011;10371;49.042;8.002;2023-04-23T03:52:12;3.78;;;3.47;;
20423;SDS011;10371;49.042;8.002;2023-04-23T03:53:12;3.63;;;3.35;;
20423;SDS011;10371;49.042;8.002;2023-04-23T03:54:13;3.85;;;3.60;;
20423;SDS011;10371;49.042;8.002;2023-04-23T03:55:13;3.58;;;3.28;;
20423;SDS011;10371;49.042;8.002;2023-04-23T03:56:13;3.92;;;3.63;;
20423;SDS011;10371;49.042;8.002;2023-04-23T03:57:14;3.33;;;3.03;;
20423;SDS011;10371;49.042;8.002;2023-04-23T03:58:15;3.85;;;3.55;;
20423;SDS011;10371;49.042;8.002;2023-04-23T03:59:16;4.07;;;3.67;;
20423;SDS011;10371;49.042;8.002;2023-04-23T04:00:16;3.40;;;3.20;;
20423;SDS011;10371;49.042;8.002;2023-04-23T04:01:17;3.70;;;3.40;;
20423;SDS011;10371;49.042;8.002;2023-04-23T04:02:17;3.90;;;3.60;;
20423;SDS011;10371;49.042;8.002;2023-04-23T04:03:18;3.78;;;3.47;;
20423;SDS011;10371;49.042;8.002;2023-04-23T04:04:18;3.40;;;3.15;;
20423;SDS011;10371;49.042;8.002;2023-04-23T04:05:19;3.35;;;3.05;;
20423;SDS011;10371;49.042;8.002;2023-04-23T04:06:19;3.83;;;3.53;;
20423;SDS011;10371;49.042;8.002;2023-04-23T04:07:19;3.72;;;3.20;;
20423;SDS011;10371;49.042;8.002;2023-04-23T04:08:20;3.38;;;3.08;;
20423;SDS011;10371;49.042;8.002;2023-04-23T04:09:21;3.58;;;3.38;;
20423;SDS011;10371;49.042;8.002;2023-04-23T04:10:21;3.40;;;3.20;;
20423;SDS011;10371;49.042;8.002;2023-04-23T04:11:22;3.70;;;3.50;;
20423;SDS011;10371;49.042;8.002;2023-04-23T04:12:22;4.88;;;4.47;;
20423;SDS011;10371;49.042;8.002;2023-04-23T04:13:22;3.88;;;3.67;;
20423;SDS011;10371;49.042;8.002;2023-04-23T04:14:22;3.88;;;3.58;;
20423;SDS011;10371;49.042;8.002;2023-04-23T04:15:23;5.18;;;4.88;;
20423;SDS011;10371;49.042;8.002;2023-04-23T04:16:23;4.28;;;3.97;;
20423;SDS011;10371;49.042;8.002;2023-04-23T04:17:23;3.80;;;3.50;;
20423;SDS011;10371;49.042;8.002;2023-04-23T04:18:24;4.13;;;3.80;;
20423;SDS011;10371;49.042;8.002;2023-04-23T04:19:24;3.10;;;2.90;;
20423;SDS011;10371;49.042;8.002;2023-04-23T04:20:24;3.35;;;3.10;;
20423;SDS011;10371;49.042;8.002;2023-04-23T04:21:27;3.10;;;2.90;;
20423;SDS011;10371;49.042;8.002;2023-04-23T04:22:28;3.08;;;2.88;;
20423;SDS011;10371;49.042;8.002;2023-04-23T04:23:29;3.40;;;3.20;;
20423;SDS011;10371;49.042;8.002;2023-04-23T04:24:30;3.20;;;3.00;;
20423;SDS011;10371;49.042;8.002;2023-04-23T04:25:31;3.30;;;3.00;;
20423;SDS011;10371;49.042;8.002;2023-04-23T04:26:32;3.50;;;3.20;;
20423;SDS011;10371;49.042;8.002;2023-04-23T04:27:33;3.25;;;2.97;;
20423;SDS011;10371;49.042;8.002;2023-04-23T04:28:34;4.07;;;3.00;;
20423;SDS011;10371;49.042;8.002;2023-04-23T04:29:36;3.30;;;3.10;;
20423;SDS011;10371;49.042;8.002;2023-04-23T04:30:36;3.10;;;2.90;;
20423;SDS011;10371;49.042;8.002;2023-04-23T04:31:37;3.20;;;3.00;;
20423;SDS011;10371;49.042;8.002;2023-04-23T04:32:38;3.22;;;3.03;;
20423;SDS011;10371;49.042;8.002;2023-04-23T04:33:39;3.40;;;3.20;;
20423;SDS011;10371;49.042;8.002;2023-04-23T04:34:40;4.00;;;3.70;;
20423;SDS011;10371;49.042;8.002;2023-04-23T04:35:40;3.70;;;3.25;;
20423;SDS011;10371;49.042;8.002;2023-04-23T04:36:41;3.78;;;3.47;;
20423;SDS011;10371;49.042;8.002;2023-04-23T04:37:42;4.60;;;4.30;;
20423;SDS011;10371;49.042;8.002;2023-04-23T04:38:42;4.53;;;4.13;;
20423;SDS011;10371;49.042;8.002;2023-04-23T04:39:43;4.00;;;3.63;;
20423;SDS011;10371;49.042;8.002;2023-04-23T04:40:43;3.53;;;3.28;;
20423;SDS011;10371;49.042;8.002;2023-04-23T04:41:44;3.72;;;3.42;;
20423;SDS011;10371;49.042;8.002;2023-04-23T04:42:45;3.85;;;3.55;;
20423;SDS011;10371;49.042;8.002;2023-04-23T04:43:46;2.97;;;2.78;;
20423;SDS011;10371;49.042;8.002;2023-04-23T04:44:47;3.20;;;3.00;;
20423;SDS011;10371;49.042;8.002;2023-04-23T04:45:47;3.35;;;3.10;;
20423;SDS011;10371;49.042;8.002;2023-04-23T04:46:47;4.18;;;3.88;;
20423;SDS011;10371;49.042;8.002;2023-04-23T04:47:48;3.40;;;3.10;;
20423;SDS011;10371;49.042;8.002;2023-04-23T04:48:48;4.13;;;3.83;;
20423;SDS011;10371;49.042;8.002;2023-04-23T04:49:49;3.70;;;3.40;;
20423;SDS011;10371;49.042;8.002;2023-04-23T04:50:49;4.65;;;3.58;;
20423;SDS011;10371;49.042;8.002;2023-04-23T04:51:49;3.67;;;3.38;;
20423;SDS011;10371;49.042;8.002;2023-04-23T04:52:50;3.95;;;3.65;;
20423;SDS011;10371;49.042;8.002;2023-04-23T04:53:50;3.53;;;3.22;;
20423;SDS011;10371;49.042;8.002;2023-04-23T04:54:50;3.70;;;3.40;;
20423;SDS011;10371;49.042;8.002;2023-04-23T04:55:51;3.28;;;3.08;;
20423;SDS011;10371;49.042;8.002;2023-04-23T04:56:51;3.40;;;3.20;;
20423;SDS011;10371;49.042;8.002;2023-04-23T04:57:52;3.53;;;3.33;;
20423;SDS011;10371;49.042;8.002;2023-04-23T04:58:52;3.28;;;2.88;;
20423;SDS011;10371;49.042;8.002;2023-04-23T04:59:52;3.28;;;3.08;;
20423;SDS011;10371;49.042;8.002;2023-04-23T05:00:54;3.30;;;3.00;;
20423;SDS011;10371;49.042;8.002;2023-04-23T05:01:55;3.05;;;2.85;;
20423;SDS011;10371;49.042;8.002;2023-04-23T05:02:56;3.13;;;2.92;;
20423;SDS011;10371;49.042;8.002;2023-04-23T05:03:56;3.50;;;3.20;;
20423;SDS011;10371;49.042;8.002;2023-04-23T05:04:57;3.13;;;2.92;;
20423;SDS011;10371;49.042;8.002;2023-04-23T05:05:57;2.85;;;2.65;;
20423;SDS011;10371;49.042;8.002;2023-04-23T05:06:57;3.47;;;3.22;;
20423;SDS011;10371;49.042;8.002;2023-04-23T05:07:58;3.35;;;3.05;;
20423;SDS011;10371;49.042;8.002;2023-04-23T05:09:01;3.58;;;3.33;;
20423;SDS011;10371;49.042;8.002;2023-04-23T05:10:01;4.32;;;4.03;;
20423;SDS011;10371;49.042;8.002;2023-04-23T05:11:01;4.53;;;4.13;;
20423;SDS011;10371;49.042;8.002;2023-04-23T05:12:02;6.25;;;5.65;;
20423;SDS011;10371;49.042;8.002;2023-04-23T05:13:06;8.85;;;8.02;;
20423;SDS011;10371;49.042;8.002;2023-04-23T05:14:06;10.90;;;9.82;;
20423;SDS011;10371;49.042;8.002;2023-04-23T05:15:10;10.38;;;9.25;;
20423;SDS011;10371;49.042;8.002;2023-04-23T05:16:14;8.68;;;7.88;;
20423;SDS011;10371;49.042;8.002;2023-04-23T05:17:14;7.32;;;6.72;;
20423;SDS011;10371;49.042;8.002;2023-04-23T05:18:15;7.85;;;7.05;;
20423;SDS011;10371;49.042;8.002;2023-04-23T05:19:15;8.73;;;7.80;;
20423;SDS011;10371;49.042;8.002;2023-04-23T05:20:15;8.50;;;7.60;;
20423;SDS011;10371;49.042;8.002;2023-04-23T05:21:16;5.57;;;5.07;;
20423;SDS011;10371;49.042;8.002;2023-04-23T05:22:16;4.85;;;4.45;;
20423;SDS011;10371;49.042;8.002;2023-04-23T05:23:17;4.82;;;4.43;;
20423;SDS011;10371;49.042;8.002;2023-04-23T05:24:17;5.10;;;4.70;;
20423;SDS011;10371;49.042;8.002;2023-04-23T05:25:18;6.63;;;6.03;;
20423;SDS011;10371;49.042;8.002;2023-04-23T05:26:18;6.75;;;6.22;;
20423;SDS011;10371;49.042;8.002;2023-04-23T05:27:19;6.85;;;5.90;;
20423;SDS011;10371;49.042;8.002;2023-04-23T05:28:20;6.30;;;5.70;;
20423;SDS011;10371;49.042;8.002;2023-04-23T05:29:20;5.03;;;4.63;;
20423;SDS011;10371;49.042;8.002;2023-04-23T05:30:20;5.40;;;5.00;;
20423;SDS011;10371;49.042;8.002;2023-04-23T05:31:20;5.05;;;4.60;;
20423;SDS011;10371;49.042;8.002;2023-04-23T05:32:21;4.10;;;3.80;;
20423;SDS011;10371;49.042;8.002;2023-04-23T05:33:21;5.13;;;4.63;;
20423;SDS011;10371;49.042;8.002;2023-04-23T05:34:21;7.55;;;6.28;;
20423;SDS011;10371;49.042;8.002;2023-04-23T05:35:22;4.60;;;4.15;;
20423;SDS011;10371;49.042;8.002;2023-04-23T05:36:22;6.03;;;5.53;;
20423;SDS011;10371;49.042;8.002;2023-04-23T05:37:22;7.43;;;6.78;;
20423;SDS011;10371;49.042;8.002;2023-04-23T05:38:22;10.13;;;9.23;;
20423;SDS011;10371;49.042;8.002;2023-04-23T05:39:23;9.85;;;9.05;;
20423;SDS011;10371;49.042;8.002;2023-04-23T05:40:23;5.47;;;4.97;;
20423;SDS011;10371;49.042;8.002;2023-04-23T05:41:23;7.47;;;6.78;;
20423;SDS011;10371;49.042;8.002;2023-04-23T05:42:23;5.05;;;4.63;;
20423;SDS011;10371;49.042;8.002;2023-04-23T05:43:24;4.50;;;4.10;;
20423;SDS011;10371;49.042;8.002;2023-04-23T05:44:24;6.25;;;5.65;;
20423;SDS011;10371;49.042;8.002;2023-04-23T05:45:24;6.28;;;5.78;;
20423;SDS011;10371;49.042;8.002;2023-04-23T05:46:25;5.53;;;5.03;;
20423;SDS011;10371;49.042;8.002;2023-04-23T05:47:26;4.90;;;4.50;;
20423;SDS011;10371;49.042;8.002;2023-04-23T05:48:27;4.90;;;4.50;;
20423;SDS011;10371;49.042;8.002;2023-04-23T05:49:27;5.43;;;4.95;;
20423;SDS011;10371;49.042;8.002;2023-04-23T05:50:27;5.20;;;4.80;;
20423;SDS011;10371;49.042;8.002;2023-04-23T05:51:28;4.82;;;4.28;;
20423;SDS011;10371;49.042;8.002;2023-04-23T05:52:28;9.05;;;8.23;;
20423;SDS011;10371;49.042;8.002;2023-04-23T05:53:32;8.95;;;8.25;;
20423;SDS011;10371;49.042;8.002;2023-04-23T05:54:32;10.30;;;9.40;;
20423;SDS011;10371;49.042;8.002;2023-04-23T05:55:32;7.47;;;6.88;;
20423;SDS011;10371;49.042;8.002;2023-04-23T05:56:33;6.05;;;5.55;;
20423;SDS011;10371;49.042;8.002;2023-04-23T05:57:33;5.50;;;5.10;;
20423;SDS011;10371;49.042;8.002;2023-04-23T05:59:49;7.53;;;6.82;;
20423;SDS011;10371;49.042;8.002;2023-04-23T06:00:49;5.32;;;4.93;;
20423;SDS011;10371;49.042;8.002;2023-04-23T06:01:49;4.85;;;4.35;;
20423;SDS011;10371;49.042;8.002;2023-04-23T06:02:50;6.25;;;5.70;;
20423;SDS011;10371;49.042;8.002;2023-04-23T06:03:50;6.13;;;5.72;;
20423;SDS011;10371;49.042;8.002;2023-04-23T06:04:51;5.30;;;4.80;;
20423;SDS011;10371;49.042;8.002;2023-04-23T06:05:51;6.32;;;5.80;;
20423;SDS011;10371;49.042;8.002;2023-04-23T06:06:51;6.78;;;6.18;;